Airfield :







YOU CAN JOIN US ON...

 
LOGIN :

Register | Disclaimer

   EN    FR    IT 

 









Legend :    VFR   Marginal VFR   IFR   Intensive IFR   Very Intensive IFR
Visi :
Ceiling :
>= 8 km
>= 3000ft
5 to 8 km
1000 to 3000 ft
1500m to 5 km
500 to 1000 ft
800 to 1500m
200 to 500 ft
< 800m
< 200 ft
Symbols :   Thunderstorms  Fog  Heavy snow  Heavy precipitations  Wind > 20 kt






- Airport Elevation : 271 ft


KBAF - Barnes Municipal

CURRENT METAR :
  • 252353Z 18006KT 10SM OVC041 21/16 A3016 RMK AO2 SLP214 T02060161 10217 20172 56007

EXPIRED METARs :
  • 252300Z 19007KT 10SM OVC043 21/16 A3017 RMK AO2 T02110156
  • 252253Z 18006KT 10SM OVC029 21/16 A3016 RMK AO2 SLP214 T02110156
  • 252153Z 18006KT 10SM OVC026 21/16 A3017 RMK AO2 SLP216 T02110156

TAF KBAF
Valid from the 26 at 00:00 until the 27 at 00:00 UTC


252326Z 2600/2624 18006KT P6SM BKN035
FM260200 19003KT P6SM BKN010
FM260800 00000KT 5SM BR BKN008
FM261100 00000KT P6SM BKN008
FM261400 18003KT P6SM SCT010
FM261700 18003KT P6SM FEW150
KZBW FIR / North America



MET'MAP, your aeronautical weather chart ! - Copyright ORBIFLY December 2007 - Disclaimer

ORBIFLY MET'MAP TEAM :

Programming & Development : Alexandra Zaïnal
Concept & original design : Baudouin d'Aumeries
Assistance for programming : Marc-Olivier Méhu
Technical & hardware support : Manuel Goepfert

Contact : metmap@orbifly.com




SOURCES & CREDITS :

   NOAA